Time;durP1;ratioP1;P1;durP2;ratioP2;P2;SDS_P1;SDS_P2;PMS_P1;PMS_P2;Temp;Humidity;BMP_temperature;BMP_pressure;BME280_temperature;BME280_humidity;BME280_pressure;Samples;Min_cycle;Max_cycle;Signal;HPM_P1;HPM_P2
2021/06/11 00:01:57;;;;;;;;;;;;;;;14.47;59.96;97001.47;1783415;80;20093;-79
2021/06/11 00:04:23;;;;;;;;;;;;;;;14.47;60.52;97000.61;1783076;80;20101;-79
2021/06/11 00:06:49;;;;;;;;;;;;;;;14.47;59.97;96998.81;1787383;80;20090;-80
2021/06/11 00:09:17;;;;;;;;;;;;;;;14.50;63.29;97005.63;1784173;80;20093;-78
2021/06/11 00:11:49;;;;;;;;;;;;;;;14.50;59.93;97006.95;1783140;80;20104;-79
2021/06/11 00:14:16;;;;;;;;;;;;;;;14.50;61.93;97010.93;1784704;80;20110;-79
2021/06/11 00:16:42;;;;;;;;;;;;;;;14.49;61.19;97007.93;1781503;80;20109;-78
2021/06/11 00:19:08;;;;;;;;;;;;;;;14.49;61.53;97005.28;1782507;80;20098;-77
2021/06/11 00:21:34;;;;;;;;;;;;;;;14.49;61.02;97002.62;1785825;80;20132;-80
2021/06/11 00:24:00;;;;;;;;;;;;;;;14.46;62.33;97000.27;1786193;80;20102;-79
2021/06/11 00:26:26;;;;;;;;;;;;;;;14.43;60.05;96992.63;1781623;80;20151;-76
2021/06/11 00:28:52;;;;;;;;;;;;;;;14.40;60.71;96988.94;1780184;80;20153;-80
2021/06/11 00:31:18;;;;;;;;;;;;;;;14.40;60.70;96983.64;1782605;80;20199;-79
2021/06/11 00:33:44;;;;;;;;;;;;;;;14.40;62.37;96982.31;1764636;80;20098;-80
2021/06/11 00:36:11;;;;;;;;;;;;;;;14.42;61.39;96979.03;1783155;80;20421;-77
2021/06/11 00:38:37;;;;;;;;;;;;;;;14.43;59.90;96978.05;1782503;81;20116;-79
2021/06/11 00:41:05;;;;;;;;;;;;;;;14.43;61.87;96976.72;1783392;80;20142;-81
2021/06/11 00:43:31;;;;;;;;;;;;;;;14.43;60.98;96976.72;1788816;80;20122;-81
2021/06/11 00:45:57;;;;;;;;;;;;;;;14.41;59.43;96974.20;1787635;80;20119;-79
2021/06/11 00:48:24;;;;;;;;;;;;;;;14.40;60.60;96980.48;1784541;80;20093;-79
2021/06/11 00:50:50;;;;;;;;;;;;;;;14.38;61.93;96983.80;1782832;80;20116;-78
2021/06/11 00:53:16;;;;;;;;;;;;;;;14.35;61.82;96978.28;1788230;80;20090;-78
2021/06/11 00:55:44;;;;;;;;;;;;;;;14.32;63.78;96972.45;1789761;80;20098;-79
2021/06/11 00:58:12;;;;;;;;;;;;;;;14.30;63.23;96966.45;1784839;80;20094;-79
2021/06/11 01:00:39;;;;;;;;;;;;;;;14.27;61.36;96968.92;1783696;80;20100;-79
2021/06/11 01:03:06;;;;;;;;;;;;;;;14.24;60.77;96969.23;1783328;80;20132;-80
2021/06/11 01:05:33;;;;;;;;;;;;;;;14.21;61.14;96971.67;1782289;80;20097;-78
2021/06/11 01:08:01;;;;;;;;;;;;;;;14.19;61.13;96969.69;1782638;81;20092;-78
2021/06/11 01:10:27;;;;;;;;;;;;;;;14.17;61.87;96966.82;1783334;80;20138;-79
2021/06/11 01:12:55;;;;;;;;;;;;;;;14.16;62.90;96969.13;1786119;80;20104;-79
2021/06/11 01:15:22;;;;;;;;;;;;;;;14.16;61.36;96970.45;1784694;80;20104;-78
2021/06/11 01:17:52;;;;;;;;;;;;;;;14.16;61.99;96971.77;1785478;80;20146;-78
2021/06/11 01:20:19;;;;;;;;;;;;;;;14.14;62.04;96966.63;1789649;80;20126;-79
2021/06/11 01:23:23;;;;;;;;;;;;;;;14.13;60.93;96970.77;1789788;80;20126;-78
2021/06/11 01:25:59;;;;;;;;;;;;;;;14.14;60.15;96971.11;1783523;80;20100;-78
2021/06/11 01:28:26;;;;;;;;;;;;;;;14.13;60.68;96964.96;1788847;80;20095;-79
2021/06/11 01:30:54;;;;;;;;;;;;;;;14.13;58.46;96966.29;1785493;80;20094;-78
2021/06/11 01:33:22;;;;;;;;;;;;;;;14.12;58.97;96963.80;1788506;80;20130;-79
2021/06/11 01:35:54;;;;;;;;;;;;;;;14.13;61.74;96962.81;1789777;80;20407;-80
2021/06/11 01:38:22;;;;;;;;;;;;;;;14.12;62.28;96957.99;1789840;80;20446;-79
2021/06/11 01:40:50;;;;;;;;;;;;;;;14.11;61.26;96964.27;1760672;81;20421;-79
2021/06/11 01:43:17;;;;;;;;;;;;;;;14.12;58.59;96965.94;1762712;80;20110;-77
2021/06/11 01:45:44;;;;;;;;;;;;;;;14.11;62.41;96965.59;1785700;80;20094;-78
2021/06/11 01:48:10;;;;;;;;;;;;;;;14.10;61.96;96963.10;1789866;80;20094;-78
2021/06/11 01:50:37;;;;;;;;;;;;;;;14.09;60.21;96963.61;1788507;80;20140;-79
2021/06/11 01:53:05;;;;;;;;;;;;;;;14.08;61.54;96966.39;1786795;80;20102;-79
2021/06/11 01:55:33;;;;;;;;;;;;;;;14.05;62.04;96969.70;1786653;80;20109;-79
2021/06/11 01:58:00;;;;;;;;;;;;;;;14.00;62.56;96973.77;1788570;80;20145;-77
2021/06/11 02:00:26;;;;;;;;;;;;;;;13.96;62.89;96962.64;1784648;80;20129;-79
2021/06/11 02:02:53;;;;;;;;;;;;;;;13.94;62.61;96965.92;1760438;81;20085;-77
2021/06/11 02:05:20;;;;;;;;;;;;;;;13.90;63.71;96958.77;1782702;81;20105;-79
2021/06/11 02:07:47;;;;;;;;;;;;;;;13.87;62.30;96963.52;1782640;80;20120;-79
2021/06/11 02:10:16;;;;;;;;;;;;;;;13.83;64.00;96964.28;1760450;81;20105;-79
2021/06/11 02:12:44;;;;;;;;;;;;;;;13.77;63.79;96967.53;1784300;80;20174;-79
2021/06/11 02:15:11;;;;;;;;;;;;;;;13.65;63.47;96968.21;1784355;80;20091;-79
2021/06/11 02:17:43;;;;;;;;;;;;;;;13.57;62.92;96970.25;1783868;80;20094;-79
2021/06/11 02:20:15;;;;;;;;;;;;;;;13.54;63.64;96971.03;1772480;80;20134;-79
2021/06/11 02:22:43;;;;;;;;;;;;;;;13.51;62.69;96972.17;1773347;80;20110;-79
2021/06/11 02:25:12;;;;;;;;;;;;;;;13.48;63.19;96970.30;1789770;80;20114;-77
2021/06/11 02:27:39;;;;;;;;;;;;;;;13.45;63.63;96964.81;1782873;80;20118;-79
2021/06/11 02:30:07;;;;;;;;;;;;;;;13.43;62.59;96968.09;1783339;80;20120;-79
2021/06/11 02:32:35;;;;;;;;;;;;;;;13.43;62.95;96970.73;1785670;80;20102;-79
2021/06/11 02:35:03;;;;;;;;;;;;;;;13.45;61.29;96987.31;1785118;80;20095;-77
2021/06/11 02:37:29;;;;;;;;;;;;;;;13.45;63.05;96984.67;1784399;80;20110;-80
2021/06/11 02:39:55;;;;;;;;;;;;;;;13.44;60.37;96980.35;1785777;80;20098;-79
2021/06/11 02:42:22;;;;;;;;;;;;;;;13.46;62.26;96987.64;1783130;80;20429;-79
2021/06/11 02:44:51;;;;;;;;;;;;;;;13.19;64.42;96947.36;1782869;81;20104;-78
2021/06/11 02:47:21;;;;;;;;;;;;;;;13.46;64.08;96989.46;1782843;80;20105;-79
2021/06/11 02:49:50;;;;;;;;;;;;;;;13.44;60.21;96988.30;1782995;80;20431;-78
2021/06/11 02:52:21;;;;;;;;;;;;;;;13.47;62.41;96985.84;1776768;80;20105;-79
2021/06/11 02:54:47;;;;;;;;;;;;;;;13.48;62.40;96979.06;1783564;80;20087;-78
2021/06/11 02:57:22;;;;;;;;;;;;;;;13.51;64.75;96977.47;1784402;80;20126;-78
2021/06/11 02:59:52;;;;;;;;;;;;;;;13.54;64.47;96976.33;1781574;80;20088;-77
2021/06/11 03:02:25;;;;;;;;;;;;;;;13.55;62.64;96976.17;1785771;80;20136;-78
2021/06/11 03:04:55;;;;;;;;;;;;;;;13.59;63.60;96976.25;1781764;80;20403;-77
2021/06/11 03:07:28;;;;;;;;;;;;;;;13.62;63.55;96980.91;1782243;80;20100;-79
2021/06/11 03:09:58;;;;;;;;;;;;;;;13.65;64.10;96979.28;1783297;80;20097;-78
2021/06/11 03:12:25;;;;;;;;;;;;;;;13.68;63.13;96978.53;1782575;80;20089;-80
2021/06/11 03:14:52;;;;;;;;;;;;;;;13.73;63.02;96982.06;1786166;80;20414;-78
2021/06/11 03:17:18;;;;;;;;;;;;;;;13.78;63.97;96984.27;1789024;80;20418;-77
2021/06/11 03:19:48;;;;;;;;;;;;;;;13.87;63.91;96986.86;1795352;80;20446;-80
2021/06/11 03:22:19;;;;;;;;;;;;;;;13.93;62.04;96986.77;1795262;80;20112;-78
2021/06/11 03:24:58;;;;;;;;;;;;;;;14.04;63.62;96983.08;1792847;80;20112;-80
2021/06/11 03:27:28;;;;;;;;;;;;;;;14.14;63.15;96981.72;1792045;80;20086;-79
2021/06/11 03:30:00;;;;;;;;;;;;;;;14.21;64.80;96982.28;1786120;80;20143;-78
2021/06/11 03:32:29;;;;;;;;;;;;;;;14.33;61.97;96986.91;1782447;80;20453;-78
2021/06/11 03:35:00;;;;;;;;;;;;;;;14.44;62.04;96990.30;1793315;80;20419;-81
2021/06/11 03:37:27;;;;;;;;;;;;;;;14.39;60.10;96958.11;1795584;80;20114;-78
2021/06/11 03:39:56;;;;;;;;;;;;;;;14.68;60.92;96988.41;1795313;80;20101;-77
2021/06/11 03:42:23;;;;;;;;;;;;;;;14.83;60.84;96996.67;1795582;80;20144;-78
2021/06/11 03:44:51;;;;;;;;;;;;;;;14.97;61.30;96993.48;1791533;80;20111;-78
2021/06/11 03:47:20;;;;;;;;;;;;;;;15.11;61.23;96993.91;1794678;80;20154;-80
2021/06/11 03:49:49;;;;;;;;;;;;;;;15.28;60.72;96994.36;1792643;78;20409;-80
2021/06/11 03:52:24;;;;;;;;;;;;;;;15.64;59.84;96992.09;1794817;80;20146;-78
2021/06/11 03:54:51;;;;;;;;;;;;;;;16.16;59.24;96996.52;1793725;80;20096;-79
2021/06/11 03:57:19;;;;;;;;;;;;;;;16.82;59.50;96997.13;1761466;80;20130;-80
2021/06/11 03:59:47;;;;;;;;;;;;;;;17.27;58.57;96999.00;1792308;80;20438;-77
2021/06/11 04:02:16;;;;;;;;;;;;;;;17.72;57.94;97000.25;1790458;80;20101;-78
2021/06/11 04:04:44;;;;;;;;;;;;;;;18.30;57.30;96997.87;1761071;80;20484;-79
2021/06/11 04:07:19;;;;;;;;;;;;;;;18.86;56.32;97001.20;1793508;80;20120;-78
2021/06/11 04:09:49;;;;;;;;;;;;;;;19.34;55.10;97006.37;1791225;80;20144;-78
2021/06/11 04:12:21;;;;;;;;;;;;;;;19.64;53.70;97006.91;1791895;80;20090;-78
2021/06/11 04:14:49;;;;;;;;;;;;;;;19.96;52.75;97003.57;1791621;79;20441;-78
2021/06/11 04:17:19;;;;;;;;;;;;;;;20.44;52.46;97001.30;1793162;80;20475;-77
2021/06/11 04:19:48;;;;;;;;;;;;;;;20.92;51.54;97007.19;1731207;82;20091;-79
2021/06/11 04:22:17;;;;;;;;;;;;;;;21.42;51.36;97005.34;1745994;80;20092;-78
2021/06/11 04:24:45;;;;;;;;;;;;;;;21.93;49.33;97002.92;1759935;80;20105;-78
2021/06/11 04:27:12;;;;;;;;;;;;;;;22.42;49.95;96997.08;1759690;81;20104;-79
2021/06/11 04:29:39;;;;;;;;;;;;;;;22.90;49.18;96999.37;1760099;80;20103;-79
2021/06/11 04:32:06;;;;;;;;;;;;;;;23.32;48.94;97001.41;1766378;80;20414;-78
2021/06/11 04:34:32;;;;;;;;;;;;;;;23.79;49.02;97001.35;1762278;80;20104;-78
2021/06/11 04:36:59;;;;;;;;;;;;;;;24.32;41.85;97004.44;1759924;80;20227;-79
2021/06/11 04:39:25;;;;;;;;;;;;;;;24.85;45.63;97005.23;1760127;80;20398;-79
2021/06/11 04:41:51;;;;;;;;;;;;;;;25.17;45.60;97009.28;1759887;80;20211;-79
2021/06/11 04:44:18;;;;;;;;;;;;;;;25.43;44.08;97014.72;1790137;80;20090;-81
2021/06/11 04:46:44;;;;;;;;;;;;;;;25.57;42.90;97006.26;1795210;80;20138;-79
2021/06/11 04:49:11;;;;;;;;;;;;;;;25.78;40.93;97008.79;1765122;80;20116;-80
2021/06/11 04:51:37;;;;;;;;;;;;;;;26.09;37.72;97005.16;1767735;80;20102;-78
2021/06/11 04:54:04;;;;;;;;;;;;;;;26.42;38.84;97005.28;1772391;81;20381;-76
2021/06/11 04:56:30;;;;;;;;;;;;;;;26.72;38.40;97000.42;1774735;80;20170;-78
2021/06/11 04:58:58;;;;;;;;;;;;;;;27.15;37.77;97000.45;1784542;80;20131;-78
2021/06/11 05:01:24;;;;;;;;;;;;;;;27.63;38.37;97006.25;1784784;80;20428;-80
2021/06/11 05:03:50;;;;;;;;;;;;;;;27.96;35.18;97003.48;1784758;80;20119;-76
2021/06/11 05:06:17;;;;;;;;;;;;;;;28.32;40.15;97002.91;1784907;80;20190;-76
2021/06/11 05:08:45;;;;;;;;;;;;;;;28.65;32.97;97003.27;1784532;80;20155;-79
2021/06/11 05:11:11;;;;;;;;;;;;;;;28.96;33.71;97006.56;1755007;82;20104;-77
2021/06/11 05:13:38;;;;;;;;;;;;;;;29.16;30.61;97006.63;1754863;82;20620;-80
2021/06/11 05:16:05;;;;;;;;;;;;;;;29.43;31.98;97007.66;1755038;82;20121;-78
2021/06/11 05:18:32;;;;;;;;;;;;;;;29.78;32.20;97009.02;1770922;80;20093;-79
2021/06/11 05:20:59;;;;;;;;;;;;;;;30.11;30.46;97006.80;1778997;80;20540;-78
2021/06/11 05:23:26;;;;;;;;;;;;;;;30.35;29.12;97005.17;1798683;80;20434;-80
2021/06/11 05:25:52;;;;;;;;;;;;;;;30.63;29.63;97018.31;1798620;80;20102;-79
2021/06/11 05:28:20;;;;;;;;;;;;;;;30.90;29.21;97014.27;1780106;80;20196;-81
2021/06/11 05:30:46;;;;;;;;;;;;;;;31.31;27.26;97021.46;1796566;80;20166;-80
2021/06/11 05:33:12;;;;;;;;;;;;;;;31.71;26.75;97018.53;1798880;80;20131;-80
2021/06/11 05:35:38;;;;;;;;;;;;;;;32.08;26.97;97019.03;1798747;80;20148;-79
2021/06/11 05:38:07;;;;;;;;;;;;;;;32.26;29.42;97013.68;1797907;80;20169;-78
2021/06/11 05:40:33;;;;;;;;;;;;;;;32.36;27.11;97020.55;1774052;80;20157;-79
2021/06/11 05:42:59;;;;;;;;;;;;;;;32.72;31.60;97023.95;1775501;81;20125;-79
2021/06/11 05:45:26;;;;;;;;;;;;;;;32.63;25.25;97024.20;1775570;81;20112;-78
2021/06/11 05:47:52;;;;;;;;;;;;;;;32.19;28.59;97030.27;1775326;80;20133;-79
2021/06/11 05:50:18;;;;;;;;;;;;;;;31.69;26.84;97027.50;1778338;80;20106;-79
2021/06/11 05:52:45;;;;;;;;;;;;;;;31.22;26.59;97029.02;1783852;80;20135;-79
2021/06/11 05:55:13;;;;;;;;;;;;;;;31.30;27.03;97034.79;1784293;80;20099;-81
2021/06/11 05:57:41;;;;;;;;;;;;;;;31.41;30.00;97030.27;1782140;80;20105;-77
2021/06/11 06:00:09;;;;;;;;;;;;;;;31.33;27.50;97031.27;1785584;80;20439;-80
2021/06/11 06:02:35;;;;;;;;;;;;;;;31.18;27.24;97033.31;1791736;80;20106;-78
2021/06/11 06:05:06;;;;;;;;;;;;;;;30.94;27.45;97030.34;1775496;81;20406;-81
2021/06/11 06:07:35;;;;;;;;;;;;;;;30.80;27.79;97035.36;1785970;80;20448;-80
2021/06/11 06:10:03;;;;;;;;;;;;;;;30.87;28.32;97034.33;1787571;80;20436;-79
2021/06/11 06:12:29;;;;;;;;;;;;;;;30.71;28.23;97030.09;1777689;80;20103;-81
2021/06/11 06:14:57;;;;;;;;;;;;;;;30.63;28.19;97033.27;1775547;81;20109;-79
2021/06/11 06:17:24;;;;;;;;;;;;;;;30.50;28.85;97035.81;1786077;80;20452;-80
2021/06/11 06:19:50;;;;;;;;;;;;;;;30.23;30.60;97036.56;1798544;79;20118;-78
2021/06/11 06:22:16;;;;;;;;;;;;;;;29.74;29.59;97032.59;1797985;80;20395;-79
2021/06/11 06:24:42;;;;;;;;;;;;;;;29.49;30.11;97034.36;1793415;80;20104;-76
2021/06/11 06:27:09;;;;;;;;;;;;;;;29.32;30.23;97032.14;1791973;80;20094;-79
2021/06/11 06:29:35;;;;;;;;;;;;;;;29.23;30.83;97036.63;1798840;80;20090;-79
2021/06/11 06:32:04;;;;;;;;;;;;;;;29.39;30.47;97035.55;1798617;80;20090;-79
2021/06/11 06:34:29;;;;;;;;;;;;;;;29.40;31.02;97038.03;1798825;80;20129;-80
2021/06/11 06:36:57;;;;;;;;;;;;;;;29.46;30.40;97030.80;1798698;80;20106;-78
2021/06/11 06:39:23;;;;;;;;;;;;;;;29.68;30.14;97031.39;1798719;80;20391;-79
2021/06/11 06:41:49;;;;;;;;;;;;;;;30.10;29.91;97033.67;1798683;80;20086;-78
2021/06/11 06:44:15;;;;;;;;;;;;;;;30.44;29.98;97033.56;1798656;80;20102;-79
2021/06/11 06:46:44;;;;;;;;;;;;;;;30.69;28.87;97037.16;1798746;80;20183;-79
2021/06/11 06:49:09;;;;;;;;;;;;;;;30.73;29.06;97035.27;1798660;80;20113;-79
2021/06/11 06:51:36;;;;;;;;;;;;;;;30.90;30.07;97040.11;1798747;80;20124;-79
2021/06/11 06:54:03;;;;;;;;;;;;;;;31.32;29.80;97034.55;1798664;80;20121;-80
2021/06/11 06:56:30;;;;;;;;;;;;;;;31.34;30.80;97037.81;1798561;80;20090;-77
2021/06/11 06:58:56;;;;;;;;;;;;;;;30.43;29.61;97032.47;1798636;80;20387;-79
2021/06/11 07:01:25;;;;;;;;;;;;;;;29.77;30.00;97036.69;1798635;80;20415;-80
2021/06/11 07:03:56;;;;;;;;;;;;;;;29.48;29.93;97031.91;1798640;80;20105;-81
2021/06/11 07:06:21;;;;;;;;;;;;;;;29.35;31.66;97035.22;1798669;80;20126;-79
2021/06/11 07:08:47;;;;;;;;;;;;;;;29.53;30.37;97026.02;1798616;80;20090;-79
2021/06/11 07:11:13;;;;;;;;;;;;;;;29.39;30.39;97028.77;1798520;80;20122;-79
2021/06/11 07:13:39;;;;;;;;;;;;;;;28.97;31.17;97032.62;1798525;80;20363;-79
2021/06/11 07:16:07;;;;;;;;;;;;;;;28.60;31.97;97032.98;1798658;80;20403;-79
2021/06/11 07:18:34;;;;;;;;;;;;;;;27.79;32.33;97028.28;1797220;79;20143;-79
2021/06/11 07:21:00;;;;;;;;;;;;;;;27.59;32.82;97024.03;1795516;80;20102;-79
2021/06/11 07:23:26;;;;;;;;;;;;;;;27.27;33.90;97021.59;1795490;80;20413;-80
2021/06/11 07:25:52;;;;;;;;;;;;;;;27.49;33.94;97019.73;1795598;80;20149;-77
2021/06/11 07:28:18;;;;;;;;;;;;;;;27.93;33.53;97015.32;1795589;80;20153;-78
2021/06/11 07:30:44;;;;;;;;;;;;;;;28.62;32.99;97024.08;1795624;80;20382;-79
2021/06/11 07:33:10;;;;;;;;;;;;;;;29.08;32.37;97028.23;1795558;80;20395;-78
2021/06/11 07:35:37;;;;;;;;;;;;;;;29.73;32.07;97020.63;1795587;80;20410;-80
2021/06/11 07:38:05;;;;;;;;;;;;;;;30.36;29.82;97016.34;1795515;80;20098;-81
2021/06/11 07:40:31;;;;;;;;;;;;;;;30.78;30.95;97023.10;1795596;80;20133;-78
2021/06/11 07:42:57;;;;;;;;;;;;;;;30.33;29.14;97023.63;1795407;80;20166;-79
2021/06/11 07:45:24;;;;;;;;;;;;;;;30.18;29.16;97015.58;1795543;80;20081;-80
2021/06/11 07:47:51;;;;;;;;;;;;;;;29.67;29.61;97018.36;1795583;80;20138;-79
2021/06/11 07:50:17;;;;;;;;;;;;;;;29.26;29.72;97013.08;1795558;80;20102;-80
2021/06/11 07:52:43;;;;;;;;;;;;;;;29.34;29.63;97009.69;1795613;80;20121;-80
2021/06/11 07:55:09;;;;;;;;;;;;;;;29.39;29.63;97013.83;1795513;80;20129;-79
2021/06/11 07:57:37;;;;;;;;;;;;;;;29.48;29.80;97015.06;1795687;80;20097;-78
2021/06/11 08:00:06;;;;;;;;;;;;;;;29.87;29.50;97008.33;1795705;80;20090;-79
2021/06/11 08:02:34;;;;;;;;;;;;;;;29.78;27.79;97015.25;1795396;80;20130;-79
2021/06/11 08:05:00;;;;;;;;;;;;;;;30.13;27.92;97003.81;1795619;80;20098;-79
2021/06/11 08:07:30;;;;;;;;;;;;;;;30.36;27.84;97012.27;1795940;80;20121;-79
2021/06/11 08:09:59;;;;;;;;;;;;;;;29.84;26.66;97011.53;1795879;80;20150;-80
2021/06/11 08:12:29;;;;;;;;;;;;;;;29.41;27.69;97012.54;1795479;80;20125;-80
2021/06/11 08:14:56;;;;;;;;;;;;;;;28.71;29.22;97011.01;1795503;80;20459;-80
2021/06/11 08:17:22;;;;;;;;;;;;;;;28.16;30.36;97011.79;1795432;80;20371;-78
2021/06/11 08:19:48;;;;;;;;;;;;;;;28.11;30.72;97012.50;1795352;79;20172;-79
2021/06/11 08:22:14;;;;;;;;;;;;;;;28.03;30.95;97002.81;1795448;80;20398;-79
2021/06/11 08:24:40;;;;;;;;;;;;;;;27.86;31.46;97003.25;1795542;80;20094;-79
2021/06/11 08:27:06;;;;;;;;;;;;;;;28.08;31.17;96990.45;1795606;80;20125;-80
2021/06/11 08:29:33;;;;;;;;;;;;;;;28.52;31.08;96997.61;1795595;80;20082;-80
2021/06/11 08:32:00;;;;;;;;;;;;;;;29.11;30.32;97001.42;1795622;80;20094;-78
2021/06/11 08:34:29;;;;;;;;;;;;;;;28.94;29.69;97002.75;1795616;80;20111;-79
2021/06/11 08:36:55;;;;;;;;;;;;;;;28.94;30.09;97003.30;1795506;80;20099;-80
2021/06/11 08:39:21;;;;;;;;;;;;;;;29.01;30.20;97002.60;1795495;80;20133;-78
2021/06/11 08:41:47;;;;;;;;;;;;;;;28.48;30.09;96999.98;1795423;80;20090;-79
2021/06/11 08:44:13;;;;;;;;;;;;;;;28.13;30.85;96997.36;1795746;80;20387;-79
2021/06/11 08:46:40;;;;;;;;;;;;;;;27.68;31.14;96998.77;1795617;80;20415;-80
2021/06/11 08:49:06;;;;;;;;;;;;;;;27.24;31.67;96995.84;1795505;80;20094;-79
2021/06/11 08:51:32;;;;;;;;;;;;;;;26.93;32.05;96999.65;1795619;80;20101;-80
2021/06/11 08:53:59;;;;;;;;;;;;;;;26.69;31.60;96990.06;1795604;80;20098;-80
2021/06/11 08:56:25;;;;;;;;;;;;;;;26.74;31.85;96993.42;1795717;80;20111;-80
2021/06/11 08:58:53;;;;;;;;;;;;;;;27.06;32.22;96992.67;1795506;80;20113;-79
2021/06/11 09:01:19;;;;;;;;;;;;;;;27.73;32.15;96984.02;1795649;80;20094;-80
2021/06/11 09:03:52;;;;;;;;;;;;;;;27.97;30.85;96985.33;1795507;80;20109;-79
2021/06/11 09:06:18;;;;;;;;;;;;;;;27.73;31.00;96985.38;1794498;79;20144;-79
2021/06/11 09:08:54;;;;;;;;;;;;;;;27.25;32.04;96983.13;1793083;79;20105;-80
2021/06/11 09:11:22;;;;;;;;;;;;;;;27.30;32.01;96987.83;1790817;80;20140;-78
2021/06/11 09:13:55;;;;;;;;;;;;;;;27.03;32.44;96983.69;1789838;80;20142;-79
2021/06/11 09:16:24;;;;;;;;;;;;;;;26.65;34.13;96988.89;1752902;82;20098;-77
2021/06/11 09:18:52;;;;;;;;;;;;;;;26.24;34.91;96975.08;1760773;81;20102;-76
2021/06/11 09:21:33;;;;;;;;;;;;;;;25.97;35.40;96976.71;1774428;80;20440;-77
2021/06/11 09:24:27;;;;;;;;;;;;;;;25.41;36.36;96986.59;1784090;80;20097;-77
2021/06/11 09:27:08;;;;;;;;;;;;;;;24.78;37.18;96981.54;1786211;80;20105;-79
2021/06/11 09:29:44;;;;;;;;;;;;;;;24.25;38.08;96984.80;1788363;80;20397;-79
2021/06/11 09:32:19;;;;;;;;;;;;;;;23.85;39.04;96974.13;1788220;80;20159;-78
2021/06/11 09:34:51;;;;;;;;;;;;;;;23.47;47.32;96985.06;1781513;79;20116;-82
2021/06/11 09:37:22;;;;;;;;;;;;;;;22.27;49.69;96991.00;1781290;80;20097;-78
2021/06/11 09:39:57;;;;;;;;;;;;;;;21.20;50.35;96993.30;1776879;80;20413;-76
2021/06/11 09:42:29;;;;;;;;;;;;;;;20.54;51.93;96990.80;1771719;80;20128;-79
2021/06/11 09:45:01;;;;;;;;;;;;;;;20.07;52.48;96991.59;1772219;81;20397;-77
2021/06/11 09:47:44;;;;;;;;;;;;;;;19.90;53.80;96990.95;1772343;80;20429;-77
2021/06/11 09:50:14;;;;;;;;;;;;;;;19.81;53.12;96995.02;1772146;81;20475;-78
2021/06/11 09:53:01;;;;;;;;;;;;;;;19.77;58.67;97001.74;1774989;81;20109;-80
2021/06/11 09:55:36;;;;;;;;;;;;;;;19.84;61.55;97001.84;1751617;81;20108;-77
2021/06/11 09:58:07;;;;;;;;;;;;;;;19.90;53.97;96997.14;1781139;80;20112;-78
2021/06/11 10:00:36;;;;;;;;;;;;;;;19.97;58.43;96995.38;1732190;82;20377;-78
2021/06/11 10:03:06;;;;;;;;;;;;;;;20.06;54.63;96995.28;1775305;81;20167;-78
2021/06/11 10:05:33;;;;;;;;;;;;;;;20.11;56.73;96986.17;1774936;80;20104;-82
2021/06/11 10:07:59;;;;;;;;;;;;;;;20.16;57.58;96987.80;1744862;82;20095;-81
2021/06/11 10:10:25;;;;;;;;;;;;;;;20.21;55.07;96987.23;1775345;81;20129;-79
2021/06/11 10:12:53;;;;;;;;;;;;;;;20.21;52.57;96983.22;1775497;81;20100;-78
2021/06/11 10:15:20;;;;;;;;;;;;;;;20.24;54.51;96990.36;1744757;82;20151;-77
2021/06/11 10:17:46;;;;;;;;;;;;;;;20.27;55.44;96987.33;1775336;81;20097;-81
2021/06/11 10:20:13;;;;;;;;;;;;;;;20.27;55.11;96987.81;1775133;81;20105;-78
2021/06/11 10:22:40;;;;;;;;;;;;;;;20.24;58.07;96979.66;1774995;81;20164;-78
2021/06/11 10:25:09;;;;;;;;;;;;;;;20.22;53.32;96976.34;1774911;81;20124;-77
2021/06/11 10:27:36;;;;;;;;;;;;;;;20.18;53.71;96979.09;1774980;81;20117;-81
2021/06/11 10:30:03;;;;;;;;;;;;;;;20.09;55.24;96978.34;1775941;81;20103;-84
2021/06/11 10:32:29;;;;;;;;;;;;;;;19.99;55.58;96976.98;1774296;81;20390;-82
2021/06/11 10:34:56;;;;;;;;;;;;;;;19.92;58.95;96980.38;1771865;79;20137;-79
2021/06/11 10:37:38;;;;;;;;;;;;;;;19.88;58.15;96977.77;1781872;79;20206;-78
2021/06/11 10:40:21;;;;;;;;;;;;;;;19.89;57.93;96974.58;1781537;81;20117;-78
2021/06/11 10:42:47;;;;;;;;;;;;;;;19.90;56.31;96977.58;1781491;80;20141;-80
2021/06/11 10:45:14;;;;;;;;;;;;;;;19.93;59.27;96978.03;1778497;79;20145;-78
2021/06/11 10:47:55;;;;;;;;;;;;;;;19.94;56.21;96977.02;1779535;81;20148;-80
2021/06/11 10:50:35;;;;;;;;;;;;;;;19.99;59.64;96977.80;1781677;81;20438;-82
2021/06/11 10:53:28;;;;;;;;;;;;;;;20.04;59.48;96975.91;1780630;81;20395;-81
2021/06/11 10:56:12;;;;;;;;;;;;;;;20.10;59.53;96969.80;1750988;82;20106;-83
2021/06/11 10:58:34;;;;;;;;;;;;;;;20.18;58.09;96965.70;1750317;82;20102;-83
2021/06/11 11:01:21;;;;;;;;;;;;;;;20.30;58.13;96959.35;1769885;81;20140;-82
2021/06/11 11:03:47;;;;;;;;;;;;;;;20.40;57.22;96965.73;1781615;81;20421;-81
2021/06/11 11:06:33;;;;;;;;;;;;;;;20.48;56.57;96964.27;1781104;81;20187;-83
2021/06/11 11:09:02;;;;;;;;;;;;;;;20.56;56.91;96961.98;1781668;81;20128;-82
2021/06/11 11:11:34;;;;;;;;;;;;;;;20.59;56.88;96965.11;1781649;80;20109;-82
2021/06/11 11:14:02;;;;;;;;;;;;;;;20.64;56.70;96969.08;1781166;80;20101;-83
2021/06/11 11:16:34;;;;;;;;;;;;;;;20.72;56.91;96971.11;1778628;79;20097;-82
2021/06/11 11:18:57;;;;;;;;;;;;;;;20.84;56.62;96972.80;1779934;80;20132;-83
2021/06/11 11:21:27;;;;;;;;;;;;;;;20.96;56.41;96969.61;1781751;81;20402;-82
2021/06/11 11:23:56;;;;;;;;;;;;;;;21.11;55.86;96963.68;1782827;79;20108;-82
2021/06/11 11:26:43;;;;;;;;;;;;;;;21.27;55.61;96965.22;1781393;81;20092;-81
2021/06/11 11:29:10;;;;;;;;;;;;;;;21.43;55.12;96957.41;1750380;82;20099;-79
2021/06/11 11:31:39;;;;;;;;;;;;;;;21.65;54.65;96959.53;1768219;80;20108;-82
2021/06/11 11:34:06;;;;;;;;;;;;;;;21.82;54.09;96954.69;1780467;79;20124;-80
2021/06/11 11:36:34;;;;;;;;;;;;;;;22.04;54.04;96949.20;1781591;79;20123;-84
2021/06/11 11:39:00;;;;;;;;;;;;;;;22.28;53.42;96949.19;1780259;81;20105;-83
2021/06/11 11:41:27;;;;;;;;;;;;;;;22.50;52.66;96953.64;1775147;81;20102;-81
2021/06/11 11:43:53;;;;;;;;;;;;;;;22.66;52.37;96950.56;1776201;81;20105;-81
2021/06/11 11:46:19;;;;;;;;;;;;;;;22.84;52.03;96950.48;1778162;79;20128;-81
2021/06/11 11:48:46;;;;;;;;;;;;;;;23.03;50.88;96946.98;1784753;79;20191;-81
2021/06/11 11:51:12;;;;;;;;;;;;;;;23.19;51.04;96940.41;1781596;81;20124;-83
2021/06/11 11:53:39;;;;;;;;;;;;;;;23.28;50.66;96944.23;1777860;79;20140;-82
2021/06/11 11:56:07;;;;;;;;;;;;;;;23.31;50.09;96945.98;1782307;80;20090;-81
2021/06/11 11:58:33;;;;;;;;;;;;;;;23.39;47.92;96937.69;1771738;80;20132;-82
2021/06/11 12:01:00;;;;;;;;;;;;;;;23.44;49.10;96939.75;1772788;79;20104;-82
2021/06/11 12:03:26;;;;;;;;;;;;;;;23.56;47.98;96942.63;1781250;81;20105;-82
2021/06/11 12:05:52;;;;;;;;;;;;;;;23.67;46.38;96940.64;1781353;81;20106;-79
2021/06/11 12:08:18;;;;;;;;;;;;;;;23.71;46.76;96935.13;1779859;81;20160;-81
2021/06/11 12:10:44;;;;;;;;;;;;;;;23.76;46.65;96937.19;1781076;80;20100;-80
2021/06/11 12:13:11;;;;;;;;;;;;;;;23.82;47.47;96936.36;1780397;79;20440;-81
2021/06/11 12:15:37;;;;;;;;;;;;;;;23.84;45.65;96933.45;1780256;80;20161;-80
2021/06/11 12:18:04;;;;;;;;;;;;;;;23.84;46.07;96931.59;1776899;79;20126;-80
2021/06/11 12:20:32;;;;;;;;;;;;;;;23.90;45.72;96925.05;1782323;80;20105;-83
2021/06/11 12:23:00;;;;;;;;;;;;;;;23.93;46.86;96923.28;1758319;80;20090;-80
2021/06/11 12:25:26;;;;;;;;;;;;;;;23.93;46.73;96919.25;1780526;80;20109;-79
2021/06/11 12:27:53;;;;;;;;;;;;;;;23.98;46.65;96917.60;1779887;80;20101;-81
2021/06/11 12:30:20;;;;;;;;;;;;;;;24.08;46.89;96917.13;1783037;80;20087;-80
2021/06/11 12:32:46;;;;;;;;;;;;;;;24.23;45.99;96918.20;1783800;79;20141;-81
2021/06/11 12:35:12;;;;;;;;;;;;;;;24.32;44.82;96918.77;1780751;81;20117;-82
2021/06/11 12:37:39;;;;;;;;;;;;;;;24.40;44.89;96918.54;1783146;79;20147;-79
2021/06/11 12:40:06;;;;;;;;;;;;;;;24.49;45.70;96911.01;1770296;80;20205;-80
2021/06/11 12:42:34;;;;;;;;;;;;;;;24.56;43.45;96910.98;1756830;80;20097;-80
2021/06/11 12:45:04;;;;;;;;;;;;;;;24.63;43.38;96905.02;1778076;81;20092;-81
2021/06/11 12:47:34;;;;;;;;;;;;;;;24.71;43.51;96896.69;1779048;80;20418;-85
2021/06/11 12:50:01;;;;;;;;;;;;;;;24.79;43.08;96892.38;1777676;79;20108;-80
2021/06/11 12:52:27;;;;;;;;;;;;;;;24.86;42.32;96891.52;1780073;79;20102;-79
2021/06/11 12:54:54;;;;;;;;;;;;;;;24.91;42.89;96887.12;1787926;79;20128;-80